Time;durP1;ratioP1;P1;durP2;ratioP2;P2;SDS_P1;SDS_P2;PMS_P1;PMS_P2;Temp;Humidity;BMP_temperature;BMP_pressure;BME280_temperature;BME280_humidity;BME280_pressure;Samples;Min_cycle;Max_cycle;Signal;HPM_P1;HPM_P2
2022/09/18 00:01:09;;;;;;;4.22;3.80;;;;;;;16.75;100.00;98206.89;1730517;82;22158;-60
2022/09/18 00:03:37;;;;;;;4.45;4.10;;;;;;;16.78;100.00;98207.09;1714093;83;21658;-59
2022/09/18 00:06:10;;;;;;;3.90;3.60;;;;;;;16.77;100.00;98210.24;1760020;80;21889;-59
2022/09/18 00:08:37;;;;;;;3.87;3.58;;;;;;;16.73;100.00;98208.36;1753270;80;21573;-59
2022/09/18 00:11:06;;;;;;;4.47;3.40;;;;;;;16.69;100.00;98208.29;1758181;80;20963;-59
2022/09/18 00:13:35;;;;;;;3.70;3.40;;;;;;;16.69;100.00;98208.29;1759912;80;21542;-59
2022/09/18 00:16:02;;;;;;;3.55;3.25;;;;;;;16.76;100.00;98203.74;1755145;80;21604;-60
2022/09/18 00:18:29;;;;;;;4.20;3.90;;;;;;;16.77;100.00;98199.63;1760315;80;21797;-60
2022/09/18 00:21:07;;;;;;;3.95;3.55;;;;;;;16.73;100.00;98194.26;1756330;80;21769;-60
2022/09/18 00:23:34;;;;;;;3.65;3.42;;;;;;;16.76;100.00;98185.16;1722984;80;21543;-60
2022/09/18 00:26:01;;;;;;;3.80;3.47;;;;;;;16.74;100.00;98186.16;1759051;80;21550;-60
2022/09/18 00:28:28;;;;;;;4.33;3.50;;;;;;;16.70;100.00;98187.89;1753766;79;20943;-59
2022/09/18 00:30:55;;;;;;;3.62;3.33;;;;;;;16.64;100.00;98182.66;1759357;80;21975;-59
2022/09/18 00:33:22;;;;;;;3.45;3.15;;;;;;;16.64;100.00;98176.02;1757176;80;21108;-59
2022/09/18 00:35:48;;;;;;;3.75;3.45;;;;;;;16.66;100.00;98173.23;1760680;80;21042;-60
2022/09/18 00:38:15;;;;;;;3.42;3.12;;;;;;;16.72;100.00;98170.84;1760686;80;21589;-60
2022/09/18 00:40:41;;;;;;;3.05;2.85;;;;;;;16.74;100.00;98153.45;1751552;80;21518;-60
2022/09/18 00:43:19;;;;;;;5.47;3.08;;;;;;;16.73;100.00;98145.16;1758110;80;21757;-60
2022/09/18 00:45:54;;;;;;;3.30;3.10;;;;;;;16.72;100.00;98144.30;1746653;80;21513;-61
2022/09/18 00:48:21;;;;;;;3.58;3.27;;;;;;;16.68;100.00;98135.45;1747544;80;21451;-60
2022/09/18 00:50:48;;;;;;;3.52;3.33;;;;;;;16.65;100.00;98130.41;1748085;80;21508;-60
2022/09/18 00:53:15;;;;;;;5.72;3.25;;;;;;;16.67;100.00;98136.41;1759481;80;21523;-60
2022/09/18 00:55:41;;;;;;;4.17;3.33;;;;;;;16.69;100.00;98136.64;1761503;80;21850;-60
2022/09/18 00:58:08;;;;;;;3.37;3.15;;;;;;;16.73;100.00;98134.05;1759196;80;21081;-60
2022/09/18 01:00:35;;;;;;;4.37;3.10;;;;;;;16.79;100.00;98135.80;1761994;80;21683;-60
2022/09/18 01:03:01;;;;;;;3.58;2.72;;;;;;;16.80;100.00;98115.75;1781210;79;21498;-61
2022/09/18 01:05:40;;;;;;;3.30;3.00;;;;;;;16.78;100.00;98116.86;1785111;79;21419;-60
2022/09/18 01:08:31;;;;;;;4.42;3.00;;;;;;;16.73;100.00;98114.14;1770173;79;21801;-60
2022/09/18 01:11:21;;;;;;;3.10;2.90;;;;;;;16.70;100.00;98114.41;1778675;79;21443;-60
2022/09/18 01:13:59;;;;;;;4.95;2.65;;;;;;;16.70;100.00;98110.44;1738980;81;21443;-63
2022/09/18 01:16:37;;;;;;;3.35;2.87;;;;;;;16.71;100.00;98107.31;1725396;82;21026;-60
2022/09/18 01:19:30;;;;;;;3.00;2.75;;;;;;;16.69;100.00;98096.84;1728041;82;20994;-60
2022/09/18 01:22:19;;;;;;;2.95;2.75;;;;;;;16.65;100.00;98088.81;1740278;81;21863;-60
2022/09/18 01:25:20;;;;;;;2.80;2.60;;;;;;;16.64;100.00;98089.78;1733293;80;21587;-60
2022/09/18 01:28:22;;;;;;;2.60;2.40;;;;;;;16.61;100.00;98081.27;1734179;82;21483;-59
2022/09/18 01:30:50;;;;;;;3.62;2.55;;;;;;;16.52;100.00;98078.49;1727522;82;21585;-60
2022/09/18 01:33:21;;;;;;;2.87;2.47;;;;;;;16.46;100.00;98077.73;1730845;81;21104;-60
2022/09/18 01:35:52;;;;;;;2.47;2.27;;;;;;;16.47;100.00;98073.27;1708715;81;22035;-61
2022/09/18 01:38:33;;;;;;;2.27;2.17;;;;;;;16.48;100.00;98069.15;1732521;82;21061;-60
2022/09/18 01:41:05;;;;;;;2.37;2.17;;;;;;;16.50;100.00;98056.58;1730149;82;21403;-60
2022/09/18 01:43:31;;;;;;;2.62;2.22;;;;;;;16.55;100.00;98053.48;1730543;81;20967;-60
2022/09/18 01:46:03;;;;;;;2.05;1.87;;;;;;;16.54;100.00;98053.16;1733342;82;20950;-60
2022/09/18 01:48:35;;;;;;;2.75;2.52;;;;;;;16.57;100.00;98052.02;1729701;81;21817;-60
2022/09/18 01:51:21;;;;;;;2.30;2.15;;;;;;;16.59;100.00;98050.89;1735457;81;21502;-60
2022/09/18 01:53:58;;;;;;;2.35;2.20;;;;;;;16.65;100.00;98047.69;1725383;81;21467;-60
2022/09/18 01:56:29;;;;;;;2.42;2.33;;;;;;;16.68;100.00;98035.94;1703008;83;21534;-60
2022/09/18 01:58:58;;;;;;;3.30;2.35;;;;;;;16.65;100.00;98028.26;1722178;82;21523;-61
2022/09/18 02:01:28;;;;;;;3.22;2.30;;;;;;;16.61;100.00;98030.36;1734813;82;22075;-60
2022/09/18 02:04:03;;;;;;;3.00;2.80;;;;;;;16.60;100.00;98031.35;1734406;81;21017;-60
2022/09/18 02:06:44;;;;;;;5.05;2.58;;;;;;;16.58;100.00;98022.70;1720913;82;21443;-59
2022/09/18 02:09:12;;;;;;;2.35;2.20;;;;;;;16.63;100.00;98022.26;1724906;81;21649;-59
2022/09/18 02:11:43;;;;;;;2.55;2.35;;;;;;;16.59;100.00;98023.03;1791376;79;21514;-60
2022/09/18 02:14:20;;;;;;;2.83;2.62;;;;;;;16.58;100.00;98020.05;1784233;79;21798;-60
2022/09/18 02:16:59;;;;;;;2.77;2.25;;;;;;;16.60;100.00;98013.28;1782802;79;21610;-61
2022/09/18 02:19:48;;;;;;;3.90;2.25;;;;;;;16.65;100.00;98014.52;1783084;79;21554;-60
2022/09/18 02:22:18;;;;;;;2.45;2.25;;;;;;;16.66;100.00;98006.89;1787184;79;21660;-60
2022/09/18 02:24:45;;;;;;;2.87;2.35;;;;;;;16.65;100.00;98006.56;1784654;79;21590;-59
2022/09/18 02:27:13;;;;;;;2.20;2.10;;;;;;;16.59;100.00;98000.48;1755485;79;22041;-60
2022/09/18 02:29:41;;;;;;;2.72;2.52;;;;;;;16.57;100.00;97994.98;1790844;79;21522;-60
2022/09/18 02:32:08;;;;;;;2.67;2.47;;;;;;;16.51;100.00;97987.11;1781809;79;21967;-60
2022/09/18 02:34:34;;;;;;;3.80;2.25;;;;;;;16.51;100.00;97981.30;1783641;79;21491;-60
2022/09/18 02:37:24;;;;;;;7.17;2.22;;;;;;;16.53;100.00;97975.86;1783144;79;21448;-60
2022/09/18 02:40:16;;;;;;;2.20;2.10;;;;;;;16.52;100.00;97971.55;1779261;79;21871;-59
2022/09/18 02:43:05;;;;;;;2.55;2.20;;;;;;;16.54;100.00;97963.78;1792074;79;21570;-60
2022/09/18 02:45:40;;;;;;;4.28;2.20;;;;;;;16.55;100.00;97946.04;1753505;79;21090;-60
2022/09/18 02:48:40;;;;;;;2.30;2.20;;;;;;;16.51;100.00;97938.03;1747134;79;21494;-60
2022/09/18 02:51:13;;;;;;;2.42;2.22;;;;;;;16.53;100.00;97924.12;1788344;79;21585;-61
2022/09/18 02:53:57;;;;;;;4.53;2.05;;;;;;;16.46;100.00;97923.03;1786166;79;21483;-60
2022/09/18 02:56:48;;;;;;;2.20;2.10;;;;;;;16.41;100.00;97917.34;1751850;80;21546;-60
2022/09/18 02:59:26;;;;;;;2.22;2.12;;;;;;;16.44;100.00;97911.73;1743846;80;21593;-60
2022/09/18 03:01:55;;;;;;;2.30;2.10;;;;;;;16.42;100.00;97907.06;1790795;79;21028;-61
2022/09/18 03:04:23;;;;;;;2.40;2.17;;;;;;;16.39;100.00;97904.22;1787514;78;21596;-60
2022/09/18 03:06:57;;;;;;;2.55;2.40;;;;;;;16.39;100.00;97905.55;1713579;81;21885;-61
2022/09/18 03:09:24;;;;;;;3.12;2.83;;;;;;;16.39;100.00;97909.53;1735943;82;21010;-60
2022/09/18 03:11:52;;;;;;;2.75;2.55;;;;;;;16.41;100.00;97906.23;1799342;79;21474;-59
2022/09/18 03:14:19;;;;;;;3.22;2.87;;;;;;;16.43;100.00;97900.80;1794187;79;21149;-60
2022/09/18 03:16:46;;;;;;;3.05;2.77;;;;;;;16.41;100.00;97900.11;1801809;78;21522;-61
2022/09/18 03:19:13;;;;;;;3.43;2.90;;;;;;;16.42;100.00;97890.66;1790368;79;22022;-60
2022/09/18 03:21:42;;;;;;;2.65;2.47;;;;;;;16.43;100.00;97889.69;1794832;79;21484;-59
2022/09/18 03:24:11;;;;;;;3.02;2.72;;;;;;;16.40;100.00;97877.20;1790925;78;21514;-59
2022/09/18 03:26:41;;;;;;;3.67;2.87;;;;;;;16.38;100.00;97876.02;1796651;79;21483;-60
2022/09/18 03:29:09;;;;;;;6.90;3.05;;;;;;;16.35;100.00;97866.55;1799191;79;21533;-60
2022/09/18 03:31:37;;;;;;;3.33;2.95;;;;;;;16.30;100.00;97866.14;1800200;79;21788;-60
2022/09/18 03:34:05;;;;;;;3.25;3.02;;;;;;;16.25;100.00;97871.03;1796165;79;21469;-60
2022/09/18 03:36:33;;;;;;;2.90;2.70;;;;;;;16.29;100.00;97878.21;1794873;79;21538;-60
2022/09/18 03:39:00;;;;;;;3.37;3.10;;;;;;;16.32;100.00;97864.67;1796229;79;21526;-60
2022/09/18 03:41:28;;;;;;;3.42;3.12;;;;;;;16.34;100.00;97864.03;1768360;79;21407;-60
2022/09/18 03:43:56;;;;;;;5.42;3.17;;;;;;;16.38;100.00;97853.97;1800740;79;21475;-59
2022/09/18 03:46:23;;;;;;;3.35;3.00;;;;;;;16.40;100.00;97852.00;1747926;80;21029;-59
2022/09/18 03:48:51;;;;;;;2.72;2.52;;;;;;;16.40;100.00;97848.03;1766597;80;21495;-59
2022/09/18 03:51:18;;;;;;;2.92;2.72;;;;;;;16.41;100.00;97839.11;1747526;80;21475;-59
2022/09/18 03:53:45;;;;;;;3.00;2.80;;;;;;;16.37;100.00;97829.74;1735162;81;21516;-59
2022/09/18 03:56:14;;;;;;;2.30;2.20;;;;;;;16.34;100.00;97830.38;1742260;79;23402;-62
2022/09/18 03:58:59;;;;;;;3.30;2.45;;;;;;;16.37;100.00;97822.65;1796963;79;21407;-58
2022/09/18 04:01:30;;;;;;;2.45;2.25;;;;;;;16.34;100.00;97825.58;1719168;79;21442;-58
2022/09/18 04:04:15;;;;;;;2.33;2.12;;;;;;;16.26;100.00;97826.31;1777647;78;21558;-59
2022/09/18 04:06:50;;;;;;;2.50;2.30;;;;;;;16.25;100.00;97825.12;1776724;79;21419;-59
2022/09/18 04:09:24;;;;;;;2.85;2.65;;;;;;;16.24;100.00;97828.28;1771652;78;22065;-59
2022/09/18 04:11:54;;;;;;;4.95;2.30;;;;;;;16.27;100.00;97817.36;1772748;78;21538;-59
2022/09/18 04:14:21;;;;;;;2.07;1.87;;;;;;;16.28;100.00;97813.74;1773912;78;21594;-60
2022/09/18 04:16:48;;;;;;;3.70;2.42;;;;;;;16.28;100.00;97805.78;1776829;78;21469;-59
2022/09/18 04:19:14;;;;;;;2.17;2.08;;;;;;;16.30;100.00;97795.86;1769863;79;21566;-59
2022/09/18 04:21:41;;;;;;;3.35;2.27;;;;;;;16.24;100.00;97786.35;1775508;79;21844;-59
2022/09/18 04:24:09;;;;;;;2.67;2.17;;;;;;;16.21;100.00;97768.90;1775689;79;21466;-59
2022/09/18 04:26:36;;;;;;;1.92;1.82;;;;;;;16.12;100.00;97756.05;1781855;79;21084;-60
2022/09/18 04:29:03;;;;;;;1.73;1.63;;;;;;;16.07;100.00;97760.95;1762224;79;21058;-59
2022/09/18 04:31:30;;;;;;;1.72;1.62;;;;;;;16.06;100.00;97759.77;1786025;79;21173;-59
2022/09/18 04:33:59;;;;;;;1.80;1.70;;;;;;;16.12;100.00;97763.15;1770457;79;21963;-59
2022/09/18 04:36:25;;;;;;;1.95;1.85;;;;;;;16.11;100.00;97768.13;1781141;79;21539;-59
2022/09/18 04:38:52;;;;;;;1.90;1.80;;;;;;;16.13;100.00;97771.46;1771224;79;21384;-59
2022/09/18 04:41:19;;;;;;;1.50;1.40;;;;;;;16.15;100.00;97766.84;1784029;78;21028;-60
2022/09/18 04:43:48;;;;;;;2.27;1.32;;;;;;;16.15;100.00;97767.67;1777654;79;21416;-59
2022/09/18 04:46:15;;;;;;;1.53;1.43;;;;;;;16.11;100.00;97754.87;1779599;79;21817;-59
2022/09/18 04:48:44;;;;;;;1.52;1.42;;;;;;;16.14;100.00;97755.41;1770137;79;21538;-59
2022/09/18 04:51:11;;;;;;;1.27;1.27;;;;;;;16.16;100.00;97748.61;1744248;79;21559;-59
2022/09/18 04:53:43;;;;;;;1.42;1.32;;;;;;;16.11;100.00;97754.37;1784760;79;21577;-59
2022/09/18 04:56:10;;;;;;;1.75;1.65;;;;;;;16.20;100.00;97742.06;1777390;79;21562;-59
2022/09/18 04:58:38;;;;;;;1.80;1.70;;;;;;;16.24;100.00;97734.65;1775645;79;21780;-59
2022/09/18 05:01:06;;;;;;;1.92;1.50;;;;;;;16.24;100.00;97730.67;1778095;78;21464;-59
2022/09/18 05:03:32;;;;;;;;;;;;;;;16.28;100.00;97722.76;1782760;79;21396;-59
2022/09/18 05:05:59;;;;;;;1.50;1.40;;;;;;;16.16;100.00;97715.47;1786031;79;20427;-60
2022/09/18 05:08:28;;;;;;;1.20;1.20;;;;;;;16.13;100.00;97713.97;1772236;79;21550;-59
2022/09/18 05:10:54;;;;;;;1.52;1.42;;;;;;;16.12;100.00;97712.78;1789427;79;21845;-60
2022/09/18 05:13:22;;;;;;;1.15;1.15;;;;;;;16.17;100.00;97717.66;1787133;79;21902;-59
2022/09/18 05:15:55;;;;;;;0.98;0.98;;;;;;;16.22;100.00;97710.92;1786236;79;21420;-59
2022/09/18 05:18:22;;;;;;;1.10;1.10;;;;;;;16.29;100.00;97710.68;1722752;82;21554;-59
2022/09/18 05:20:50;;;;;;;1.05;1.02;;;;;;;16.37;100.00;97711.26;1750469;80;21552;-59
2022/09/18 05:23:17;;;;;;;1.10;1.10;;;;;;;16.38;100.00;97702.80;1736159;82;21666;-59
2022/09/18 05:25:44;;;;;;;1.65;1.12;;;;;;;16.30;100.00;97693.77;1735871;82;21586;-59
2022/09/18 05:28:12;;;;;;;2.27;1.40;;;;;;;16.27;100.00;97682.13;1734995;82;21468;-60
2022/09/18 05:30:40;;;;;;;1.25;1.17;;;;;;;16.22;100.00;97675.13;1738730;82;21491;-59
2022/09/18 05:33:09;;;;;;;1.50;1.40;;;;;;;16.24;100.00;97669.19;1736390;81;21482;-59
2022/09/18 05:35:38;;;;;;;1.37;1.27;;;;;;;16.30;100.00;97678.36;1707124;82;21883;-59
2022/09/18 05:38:05;;;;;;;1.22;1.12;;;;;;;16.26;100.00;97677.00;1732421;82;21668;-59
2022/09/18 05:40:35;;;;;;;1.60;1.50;;;;;;;16.23;100.00;97678.61;1726056;81;21598;-59
2022/09/18 05:45:41;;;;;;;2.12;1.80;;;;;;;15.48;100.00;97690.10;1790366;78;22641;-60
2022/09/18 05:48:16;;;;;;;6.00;2.10;;;;;;;15.93;100.00;97667.33;1754316;80;21537;-63
2022/09/18 05:50:44;;;;;;;1.85;1.75;;;;;;;15.94;100.00;97663.22;1767698;80;21786;-62
2022/09/18 05:53:14;;;;;;;1.70;1.60;;;;;;;15.97;100.00;97668.70;1762440;80;21053;-62
2022/09/18 05:55:48;;;;;;;2.20;2.10;;;;;;;15.99;100.00;97663.26;1760449;80;21435;-60
2022/09/18 05:58:16;;;;;;;2.22;1.60;;;;;;;16.02;100.00;97662.48;1744593;81;21561;-60
2022/09/18 06:00:46;;;;;;;;;;;;;;;15.96;100.00;97661.25;1766244;80;21565;-62
2022/09/18 06:03:16;;;;;;;1.80;1.70;;;;;;;15.91;100.00;97664.83;1761924;80;21900;-61
2022/09/18 06:05:43;;;;;;;1.92;1.82;;;;;;;15.93;100.00;97665.52;1761676;80;21420;-61
2022/09/18 06:08:11;;;;;;;2.10;1.98;;;;;;;16.00;100.00;97659.14;1721527;80;21558;-60
2022/09/18 06:10:39;;;;;;;2.90;2.25;;;;;;;15.99;100.00;97643.38;1771259;80;21553;-60
2022/09/18 06:13:14;;;;;;;2.40;2.27;;;;;;;16.04;100.00;97639.80;1760224;80;21533;-60
2022/09/18 06:15:47;;;;;;;2.02;1.92;;;;;;;16.05;100.00;97631.70;1757554;80;22589;-60
2022/09/18 06:18:14;;;;;;;3.02;2.33;;;;;;;16.07;100.00;97631.06;1759462;80;21168;-61
2022/09/18 06:20:42;;;;;;;2.27;2.17;;;;;;;16.08;100.00;97630.06;1766348;80;21498;-60
2022/09/18 06:23:09;;;;;;;2.33;2.22;;;;;;;16.09;100.00;97626.44;1748680;80;21529;-60
2022/09/18 06:25:42;;;;;;;2.30;2.10;;;;;;;16.11;100.00;97619.67;1754719;80;21533;-60
2022/09/18 06:28:09;;;;;;;2.50;2.30;;;;;;;16.15;100.00;97611.75;1759567;80;21861;-60
2022/09/18 06:30:36;;;;;;;2.37;2.27;;;;;;;16.22;100.00;97619.45;1763686;80;21131;-61
2022/09/18 06:33:08;;;;;;;2.10;1.90;;;;;;;16.26;100.00;97618.16;1759238;80;21514;-60
2022/09/18 06:35:40;;;;;;;2.72;2.52;;;;;;;16.29;100.00;97613.04;1768645;80;21650;-61
2022/09/18 06:38:08;;;;;;;2.85;2.58;;;;;;;16.32;100.00;97616.72;1768736;80;21706;-60
2022/09/18 06:40:36;;;;;;;4.80;2.47;;;;;;;16.32;100.00;97615.40;1751914;80;21827;-62
2022/09/18 06:43:11;;;;;;;3.20;2.90;;;;;;;16.32;100.00;97611.42;1749565;80;21530;-60
2022/09/18 06:45:51;;;;;;;2.60;2.40;;;;;;;16.32;100.00;97608.27;1749928;80;21517;-59
2022/09/18 06:48:21;;;;;;;2.72;2.50;;;;;;;16.33;100.00;97602.47;1757109;80;21412;-61
2022/09/18 06:50:55;;;;;;;;;;;;;;;16.37;100.00;97606.50;1759386;80;21580;-62
2022/09/18 06:53:23;;;;;;;3.05;2.85;;;;;;;16.39;100.00;97615.14;1761864;80;21751;-61
2022/09/18 06:55:51;;;;;;;2.83;2.62;;;;;;;16.42;100.00;97614.81;1760905;80;21467;-60
2022/09/18 06:58:20;;;;;;;2.77;2.58;;;;;;;16.43;100.00;97621.80;1751973;80;20970;-61
2022/09/18 07:00:48;;;;;;;3.02;2.83;;;;;;;16.43;100.00;97621.80;1757446;80;21887;-61
2022/09/18 07:03:15;;;;;;;3.62;2.40;;;;;;;16.43;100.00;97617.83;1764733;80;21089;-62
2022/09/18 07:06:02;;;;;;;3.08;2.87;;;;;;;16.44;100.00;97614.17;1752780;80;21943;-61
2022/09/18 07:08:35;;;;;;;2.90;2.70;;;;;;;16.46;100.00;97604.27;1762356;80;21471;-59
2022/09/18 07:11:04;;;;;;;2.98;2.77;;;;;;;16.50;100.00;97592.36;1755406;80;21530;-61
2022/09/18 07:13:31;;;;;;;2.63;2.43;;;;;;;16.52;100.00;97592.22;1759512;80;21454;-61
2022/09/18 07:15:58;;;;;;;2.90;2.70;;;;;;;16.56;100.00;97572.34;1756969;80;21534;-61
2022/09/18 07:18:26;;;;;;;3.30;2.58;;;;;;;16.63;100.00;97548.67;1761191;80;21813;-61
2022/09/18 07:20:52;;;;;;;6.67;2.77;;;;;;;16.68;100.00;97541.91;1762808;80;21606;-60
2022/09/18 07:23:21;;;;;;;2.25;2.15;;;;;;;16.70;100.00;97551.88;1759029;79;21486;-60
2022/09/18 07:25:49;;;;;;;2.72;2.52;;;;;;;16.75;100.00;97555.41;1756902;80;21514;-60
2022/09/18 07:28:15;;;;;;;2.72;2.52;;;;;;;16.77;100.00;97538.83;1759013;80;21894;-60
2022/09/18 07:30:45;;;;;;;2.65;2.45;;;;;;;16.79;100.00;97540.01;1759467;80;21710;-62
2022/09/18 07:33:12;;;;;;;2.67;2.47;;;;;;;16.82;100.00;97544.98;1759697;80;27839;-60
2022/09/18 07:35:40;;;;;;;2.47;2.27;;;;;;;16.82;100.00;97551.61;1752681;80;21518;-60
2022/09/18 07:38:08;;;;;;;2.40;2.20;;;;;;;16.85;100.00;97546.04;1760887;80;21427;-60
2022/09/18 07:40:41;;;;;;;3.10;2.20;;;;;;;16.86;100.00;97542.41;1755926;80;22202;-59
2022/09/18 07:43:11;;;;;;;4.42;2.20;;;;;;;16.85;100.00;97542.06;1761727;80;21790;-59
2022/09/18 07:45:39;;;;;;;2.30;2.12;;;;;;;16.88;100.00;97536.45;1756119;80;21502;-60
2022/09/18 07:48:08;;;;;;;3.45;2.25;;;;;;;16.86;100.00;97538.43;1763086;80;20962;-60
2022/09/18 07:50:36;;;;;;;2.65;2.45;;;;;;;16.86;100.00;97542.41;1761568;80;21557;-60
2022/09/18 07:53:04;;;;;;;2.65;2.45;;;;;;;16.88;100.00;97545.73;1750724;80;21514;-61
2022/09/18 07:55:34;;;;;;;3.58;2.22;;;;;;;16.92;100.00;97547.08;1761785;80;21796;-61
2022/09/18 07:58:03;;;;;;;2.08;1.98;;;;;;;16.96;100.00;97547.10;1762834;80;21434;-61
2022/09/18 08:00:34;;;;;;;1.85;1.75;;;;;;;17.03;100.00;97547.32;1746839;80;21533;-61
2022/09/18 08:03:13;;;;;;;1.90;1.80;;;;;;;17.02;100.00;97549.12;1759030;80;21442;-63
2022/09/18 08:05:42;;;;;;;3.47;2.22;;;;;;;17.05;100.00;97539.52;1754277;80;21601;-59
2022/09/18 08:08:12;;;;;;;2.50;1.97;;;;;;;17.07;100.00;97540.70;1756928;80;21968;-59
2022/09/18 08:10:43;;;;;;;1.95;1.85;;;;;;;17.04;100.00;97542.33;1743013;80;21494;-60
2022/09/18 08:13:14;;;;;;;2.62;2.20;;;;;;;17.55;100.00;97524.61;1758621;78;21606;-60
2022/09/18 08:16:01;;;;;;;3.75;3.50;;;;;;;17.57;100.00;97519.97;1749384;80;21427;-62
2022/09/18 08:18:30;;;;;;;3.65;3.35;;;;;;;17.58;100.00;97517.66;1698238;80;21530;-60
2022/09/18 08:21:01;;;;;;;3.15;2.95;;;;;;;17.60;100.00;97511.69;1746742;80;22097;-62
2022/09/18 08:23:39;;;;;;;3.60;3.30;;;;;;;17.65;100.00;97507.20;1750648;80;26982;-60
2022/09/18 08:26:05;;;;;;;4.60;4.20;;;;;;;17.66;100.00;97513.69;1764453;80;21443;-60
2022/09/18 08:28:32;;;;;;;5.67;5.20;;;;;;;17.68;100.00;97512.20;1756160;80;21554;-62
2022/09/18 08:31:01;;;;;;;5.53;5.12;;;;;;;17.70;100.00;97511.53;1757460;80;21471;-60
2022/09/18 08:33:28;;;;;;;5.25;4.80;;;;;;;17.74;100.00;97499.58;1759778;80;21570;-60
2022/09/18 08:35:55;;;;;;;5.80;5.33;;;;;;;17.75;100.00;97493.80;1766895;80;21411;-60
2022/09/18 08:38:24;;;;;;;5.33;4.92;;;;;;;17.81;100.00;97497.94;1762788;80;21558;-61
2022/09/18 08:41:14;;;;;;;5.95;5.55;;;;;;;17.80;100.00;97498.95;1741699;80;21546;-60
2022/09/18 08:43:47;;;;;;;5.85;5.45;;;;;;;17.78;100.00;97496.10;1754302;80;21510;-60
2022/09/18 08:46:18;;;;;;;6.47;6.05;;;;;;;17.76;100.00;97496.26;1757304;80;21788;-59
2022/09/18 08:49:17;;;;;;;6.22;5.25;;;;;;;17.80;100.00;97483.00;1749458;80;21557;-60
2022/09/18 08:52:16;;;;;;;4.85;4.55;;;;;;;17.89;100.00;97474.55;1746820;80;21010;-60
2022/09/18 08:55:03;;;;;;;5.12;4.72;;;;;;;17.97;100.00;97475.91;1753449;80;21018;-60
2022/09/18 08:57:40;;;;;;;5.08;4.67;;;;;;;18.05;100.00;97478.56;1742382;80;21538;-60
2022/09/18 09:00:33;;;;;;;4.65;4.35;;;;;;;18.20;100.00;97462.77;1752314;80;21745;-60
2022/09/18 09:03:31;;;;;;;5.03;4.72;;;;;;;18.29;100.00;97465.76;1747160;80;21483;-60
2022/09/18 09:06:17;;;;;;;4.55;4.25;;;;;;;18.38;100.00;97459.09;1752635;80;21415;-60
2022/09/18 09:08:55;;;;;;;4.62;4.33;;;;;;;18.39;100.00;97451.45;1750141;80;21017;-60
2022/09/18 09:11:34;;;;;;;4.80;4.50;;;;;;;18.43;100.00;97444.80;1720190;80;21542;-60
2022/09/18 09:14:23;;;;;;;5.65;5.25;;;;;;;18.44;100.00;97441.11;1743330;80;22111;-60
2022/09/18 09:16:53;;;;;;;4.72;4.42;;;;;;;18.40;100.00;97439.80;1751907;80;21025;-60
2022/09/18 09:19:47;;;;;;;4.95;4.62;;;;;;;18.31;100.00;97442.13;1749527;80;21567;-60
2022/09/18 09:22:27;;;;;;;4.62;4.33;;;;;;;18.23;100.00;97435.00;1742245;80;21511;-61
2022/09/18 09:25:18;;;;;;;4.42;4.12;;;;;;;18.26;100.00;97423.53;1754807;80;21589;-60
2022/09/18 09:27:50;;;;;;;4.78;4.47;;;;;;;18.28;100.00;97423.37;1754848;80;22179;-61
2022/09/18 09:30:24;;;;;;;4.00;3.80;;;;;;;18.35;100.00;97427.53;1709225;80;21052;-61
2022/09/18 09:33:26;;;;;;;4.00;3.70;;;;;;;18.42;100.00;97425.83;1738074;80;21479;-61
2022/09/18 09:36:13;;;;;;;4.10;3.80;;;;;;;18.45;100.00;97426.83;1748502;80;21445;-60
2022/09/18 09:39:02;;;;;;;4.17;3.87;;;;;;;18.52;100.00;97421.16;1742496;80;21415;-61
2022/09/18 09:41:43;;;;;;;3.98;3.67;;;;;;;18.58;100.00;97419.14;1741708;80;22175;-61
2022/09/18 09:44:24;;;;;;;3.30;3.10;;;;;;;18.67;100.00;97430.10;1750393;80;21452;-63
2022/09/18 09:47:05;;;;;;;4.03;3.72;;;;;;;18.74;100.00;97422.27;1717895;81;21502;-63
2022/09/18 09:49:55;;;;;;;4.22;4.00;;;;;;;18.71;100.00;97423.94;1758043;80;21463;-63
2022/09/18 09:52:27;;;;;;;4.25;3.95;;;;;;;18.71;100.00;97423.94;1748008;80;21601;-64
2022/09/18 09:55:03;;;;;;;4.15;3.85;;;;;;;18.70;100.00;97426.25;1754962;80;21795;-63
2022/09/18 09:58:11;;;;;;;3.62;3.42;;;;;;;18.71;100.00;97428.44;1703466;80;21523;-64
2022/09/18 10:01:22;;;;;;;4.03;3.72;;;;;;;18.73;100.00;97429.91;1746604;80;21507;-63
2022/09/18 10:03:57;;;;;;;4.58;4.17;;;;;;;18.73;100.00;97436.57;1746191;80;21586;-65
2022/09/18 10:06:55;;;;;;;4.40;4.10;;;;;;;18.79;100.00;97431.06;1749413;80;21510;-63
2022/09/18 10:09:46;;;;;;;3.90;3.70;;;;;;;18.84;100.00;97432.75;1751070;80;21879;-63
2022/09/18 10:12:38;;;;;;;5.53;3.55;;;;;;;18.84;100.00;97436.23;1730286;80;21575;-63
2022/09/18 10:15:16;;;;;;;3.87;3.58;;;;;;;18.82;100.00;97432.91;1755097;80;20950;-64
2022/09/18 10:17:43;;;;;;;4.47;3.60;;;;;;;18.81;100.00;97438.41;1748711;80;21492;-63
2022/09/18 10:20:17;;;;;;;3.30;3.10;;;;;;;18.79;100.00;97439.05;1753147;80;21455;-63
2022/09/18 10:22:45;;;;;;;4.05;3.75;;;;;;;18.78;100.00;97439.56;1748505;80;21747;-63
2022/09/18 10:25:18;;;;;;;3.47;3.20;;;;;;;18.81;100.00;97433.08;1747416;80;21953;-63
2022/09/18 10:27:46;;;;;;;2.85;2.60;;;;;;;18.85;100.00;97433.91;1753680;80;21489;-63
2022/09/18 10:30:14;;;;;;;2.60;2.50;;;;;;;18.90;100.00;97429.39;1746460;80;21526;-63
2022/09/18 10:32:43;;;;;;;2.60;2.40;;;;;;;18.90;100.00;97421.41;1758319;80;21072;-63
2022/09/18 10:35:31;;;;;;;2.70;2.50;;;;;;;18.90;100.00;97421.41;1750005;80;21751;-63
2022/09/18 10:37:58;;;;;;;2.42;2.22;;;;;;;18.87;100.00;97415.08;1749922;80;21498;-63
2022/09/18 10:40:38;;;;;;;2.00;1.90;;;;;;;18.83;100.00;97419.09;1732421;80;21046;-63
2022/09/18 10:43:16;;;;;;;2.55;2.35;;;;;;;18.84;100.00;97426.91;1753871;79;21550;-63
2022/09/18 10:45:43;;;;;;;2.55;2.35;;;;;;;18.89;100.00;97418.91;1754137;80;21522;-63
2022/09/18 10:48:24;;;;;;;2.17;2.08;;;;;;;18.89;100.00;97419.73;1678522;80;21970;-63
2022/09/18 10:50:53;;;;;;;2.47;2.27;;;;;;;18.91;100.00;97424.89;1744991;80;21582;-62
2022/09/18 10:53:30;;;;;;;3.05;2.85;;;;;;;18.94;100.00;97421.38;1754183;80;21668;-64
2022/09/18 10:56:06;;;;;;;6.08;2.98;;;;;;;18.95;100.00;97417.73;1741348;80;21502;-63
2022/09/18 10:58:35;;;;;;;2.67;2.20;;;;;;;18.87;100.00;97419.08;1746060;80;21557;-63
2022/09/18 11:01:07;;;;;;;2.60;2.40;;;;;;;18.90;100.00;97414.75;1749080;80;21853;-63
2022/09/18 11:03:44;;;;;;;2.62;2.42;;;;;;;18.96;100.00;97411.89;1750028;80;21041;-63
2022/09/18 11:06:24;;;;;;;2.95;2.72;;;;;;;19.01;100.00;97405.05;1752302;80;21801;-64
2022/09/18 11:08:57;;;;;;;2.20;2.10;;;;;;;19.06;100.00;97397.85;1750017;80;21498;-63
2022/09/18 11:11:34;;;;;;;4.62;2.40;;;;;;;19.18;100.00;97384.99;1755327;80;21518;-62
2022/09/18 11:14:15;;;;;;;2.80;2.60;;;;;;;19.18;100.00;97382.33;1743362;80;21796;-67
2022/09/18 11:16:48;;;;;;;2.22;2.12;;;;;;;19.18;100.00;97382.33;1753378;80;21478;-65
2022/09/18 11:19:33;;;;;;;3.10;2.90;;;;;;;19.21;100.00;97373.97;1747419;80;21584;-66
2022/09/18 11:22:05;;;;;;;3.30;3.00;;;;;;;19.22;100.00;97380.45;1750718;80;21475;-68
2022/09/18 11:24:36;;;;;;;3.27;3.00;;;;;;;19.19;100.00;97378.65;1748193;80;21116;-68
2022/09/18 11:27:21;;;;;;;2.85;2.65;;;;;;;19.14;100.00;97372.53;1735169;80;22030;-62
2022/09/18 11:29:48;;;;;;;3.12;2.92;;;;;;;19.16;100.00;97369.70;1758808;80;21415;-63
2022/09/18 11:32:29;;;;;;;3.45;3.15;;;;;;;19.20;100.00;97353.69;1747867;80;21602;-63
2022/09/18 11:35:00;;;;;;;3.27;3.08;;;;;;;19.24;100.00;97360.31;1749635;80;20990;-63
2022/09/18 11:37:40;;;;;;;3.27;3.02;;;;;;;19.24;100.00;97364.31;1749404;80;21502;-63
2022/09/18 11:40:21;;;;;;;3.45;3.17;;;;;;;19.25;100.00;97360.66;1724745;80;21898;-62
2022/09/18 11:42:51;;;;;;;3.47;3.17;;;;;;;19.29;100.00;97347.78;1744911;80;21431;-64
2022/09/18 11:46:02;;;;;;;5.65;3.05;;;;;;;19.32;100.00;97343.45;1751799;80;21499;-64
2022/09/18 11:48:58;;;;;;;3.22;3.02;;;;;;;19.44;100.00;97336.20;1741943;80;21735;-64
2022/09/18 11:51:43;;;;;;;3.17;2.97;;;;;;;19.56;100.00;97319.27;1676727;83;21538;-64
2022/09/18 11:54:27;;;;;;;2.90;2.70;;;;;;;19.70;100.00;97322.98;1742426;80;22117;-64
2022/09/18 11:57:02;;;;;;;3.00;2.80;;;;;;;19.92;100.00;97307.98;1751829;80;21494;-64
2022/09/18 11:59:41;;;;;;;3.15;2.95;;;;;;;19.92;100.00;97307.98;1747819;80;21592;-64